sensor_id;sensor_type;location;lat;lon;timestamp;temperature;humidity
14397;DHT22;50653;0.000;0.000;2022-08-03T00:01:36;22.60;72.50
14397;DHT22;50653;0.000;0.000;2022-08-03T00:04:02;22.60;72.50
14397;DHT22;50653;0.000;0.000;2022-08-03T00:06:28;22.50;72.50
14397;DHT22;50653;0.000;0.000;2022-08-03T00:08:53;22.50;73.00
14397;DHT22;50653;0.000;0.000;2022-08-03T00:11:19;22.40;72.80
14397;DHT22;50653;0.000;0.000;2022-08-03T00:13:45;22.40;73.00
14397;DHT22;50653;0.000;0.000;2022-08-03T00:16:10;22.50;72.90
14397;DHT22;50653;0.000;0.000;2022-08-03T00:18:37;22.40;73.00
14397;DHT22;50653;0.000;0.000;2022-08-03T00:21:04;22.40;74.30
14397;DHT22;50653;0.000;0.000;2022-08-03T00:23:29;22.30;74.30
14397;DHT22;50653;0.000;0.000;2022-08-03T00:25:55;22.30;73.50
14397;DHT22;50653;0.000;0.000;2022-08-03T00:28:22;22.30;74.10
14397;DHT22;50653;0.000;0.000;2022-08-03T00:30:47;22.40;73.20
14397;DHT22;50653;0.000;0.000;2022-08-03T00:33:13;22.30;73.60
14397;DHT22;50653;0.000;0.000;2022-08-03T00:35:39;22.20;73.80
14397;DHT22;50653;0.000;0.000;2022-08-03T00:38:05;22.20;73.80
14397;DHT22;50653;0.000;0.000;2022-08-03T00:40:31;22.20;73.70
14397;DHT22;50653;0.000;0.000;2022-08-03T00:42:57;22.10;73.90
14397;DHT22;50653;0.000;0.000;2022-08-03T00:45:25;22.20;73.50
14397;DHT22;50653;0.000;0.000;2022-08-03T00:47:52;22.30;74.30
14397;DHT22;50653;0.000;0.000;2022-08-03T00:50:19;22.40;73.20
14397;DHT22;50653;0.000;0.000;2022-08-03T00:52:47;22.30;73.00
14397;DHT22;50653;0.000;0.000;2022-08-03T00:55:14;22.20;73.20
14397;DHT22;50653;0.000;0.000;2022-08-03T00:57:41;22.20;73.30
14397;DHT22;50653;0.000;0.000;2022-08-03T01:00:09;22.30;73.60
14397;DHT22;50653;0.000;0.000;2022-08-03T01:02:36;22.20;74.00
14397;DHT22;50653;0.000;0.000;2022-08-03T01:05:02;22.10;73.70
14397;DHT22;50653;0.000;0.000;2022-08-03T01:10:24;22.10;75.00
14397;DHT22;50653;0.000;0.000;2022-08-03T01:13:02;22.00;75.30
14397;DHT22;50653;0.000;0.000;2022-08-03T01:15:40;22.00;75.50
14397;DHT22;50653;0.000;0.000;2022-08-03T01:18:16;22.00;74.40
14397;DHT22;50653;0.000;0.000;2022-08-03T01:20:48;22.00;74.40
14397;DHT22;50653;0.000;0.000;2022-08-03T01:23:31;22.10;74.60
14397;DHT22;50653;0.000;0.000;2022-08-03T01:26:23;22.00;74.80
14397;DHT22;50653;0.000;0.000;2022-08-03T01:31:47;21.90;75.40
14397;DHT22;50653;0.000;0.000;2022-08-03T01:34:18;21.80;75.40
14397;DHT22;50653;0.000;0.000;2022-08-03T01:36:51;21.90;74.60
14397;DHT22;50653;0.000;0.000;2022-08-03T01:39:19;21.80;75.10
14397;DHT22;50653;0.000;0.000;2022-08-03T01:41:54;21.80;75.30
14397;DHT22;50653;0.000;0.000;2022-08-03T01:44:26;21.80;75.10
14397;DHT22;50653;0.000;0.000;2022-08-03T01:46:58;21.70;75.40
14397;DHT22;50653;0.000;0.000;2022-08-03T01:49:24;21.90;75.10
14397;DHT22;50653;0.000;0.000;2022-08-03T01:51:51;21.90;74.80
14397;DHT22;50653;0.000;0.000;2022-08-03T01:54:18;21.90;74.70
14397;DHT22;50653;0.000;0.000;2022-08-03T01:56:47;21.80;75.20
14397;DHT22;50653;0.000;0.000;2022-08-03T01:59:15;21.80;75.10
14397;DHT22;50653;0.000;0.000;2022-08-03T02:01:44;21.80;74.90
14397;DHT22;50653;0.000;0.000;2022-08-03T02:04:14;21.90;75.20
14397;DHT22;50653;0.000;0.000;2022-08-03T02:06:44;21.80;75.20
14397;DHT22;50653;0.000;0.000;2022-08-03T02:09:12;21.90;74.60
14397;DHT22;50653;0.000;0.000;2022-08-03T02:11:39;21.80;75.50
14397;DHT22;50653;0.000;0.000;2022-08-03T02:14:07;21.70;75.90
14397;DHT22;50653;0.000;0.000;2022-08-03T02:16:33;21.70;76.30
14397;DHT22;50653;0.000;0.000;2022-08-03T02:19:02;21.70;76.00
14397;DHT22;50653;0.000;0.000;2022-08-03T02:21:29;21.60;75.70
14397;DHT22;50653;0.000;0.000;2022-08-03T02:23:56;21.50;75.90
14397;DHT22;50653;0.000;0.000;2022-08-03T02:26:22;21.50;76.40
14397;DHT22;50653;0.000;0.000;2022-08-03T02:28:51;21.60;75.90
14397;DHT22;50653;0.000;0.000;2022-08-03T02:31:22;21.50;76.80
14397;DHT22;50653;0.000;0.000;2022-08-03T02:33:52;21.50;76.60
14397;DHT22;50653;0.000;0.000;2022-08-03T02:36:22;21.50;77.00
14397;DHT22;50653;0.000;0.000;2022-08-03T02:38:52;21.60;76.80
14397;DHT22;50653;0.000;0.000;2022-08-03T02:41:23;21.50;76.30
14397;DHT22;50653;0.000;0.000;2022-08-03T02:43:53;21.60;76.50
14397;DHT22;50653;0.000;0.000;2022-08-03T02:46:23;21.60;76.90
14397;DHT22;50653;0.000;0.000;2022-08-03T02:48:51;21.60;76.40
14397;DHT22;50653;0.000;0.000;2022-08-03T02:51:19;21.40;76.40
14397;DHT22;50653;0.000;0.000;2022-08-03T02:53:46;21.50;76.40
14397;DHT22;50653;0.000;0.000;2022-08-03T02:56:12;21.50;76.10
14397;DHT22;50653;0.000;0.000;2022-08-03T02:58:41;21.50;76.90
14397;DHT22;50653;0.000;0.000;2022-08-03T03:01:08;21.50;76.00
14397;DHT22;50653;0.000;0.000;2022-08-03T03:03:35;21.40;77.00
14397;DHT22;50653;0.000;0.000;2022-08-03T03:06:02;21.30;76.70
14397;DHT22;50653;0.000;0.000;2022-08-03T03:08:28;21.40;76.60
14397;DHT22;50653;0.000;0.000;2022-08-03T03:10:59;21.40;77.20
14397;DHT22;50653;0.000;0.000;2022-08-03T03:13:29;21.40;76.90
14397;DHT22;50653;0.000;0.000;2022-08-03T03:15:56;21.40;76.80
14397;DHT22;50653;0.000;0.000;2022-08-03T03:18:23;21.50;76.90
14397;DHT22;50653;0.000;0.000;2022-08-03T03:20:50;21.50;76.80
14397;DHT22;50653;0.000;0.000;2022-08-03T03:23:17;21.40;76.40
14397;DHT22;50653;0.000;0.000;2022-08-03T03:25:44;21.40;75.90
14397;DHT22;50653;0.000;0.000;2022-08-03T03:28:10;21.30;76.60
14397;DHT22;50653;0.000;0.000;2022-08-03T03:30:37;21.30;76.50
14397;DHT22;50653;0.000;0.000;2022-08-03T03:33:02;21.20;77.10
14397;DHT22;50653;0.000;0.000;2022-08-03T03:35:29;21.20;76.90
14397;DHT22;50653;0.000;0.000;2022-08-03T03:37:55;21.30;76.50
14397;DHT22;50653;0.000;0.000;2022-08-03T03:40:21;21.30;76.60
14397;DHT22;50653;0.000;0.000;2022-08-03T03:42:47;21.30;76.60
14397;DHT22;50653;0.000;0.000;2022-08-03T03:45:13;21.30;76.80
14397;DHT22;50653;0.000;0.000;2022-08-03T03:47:40;21.20;76.70
14397;DHT22;50653;0.000;0.000;2022-08-03T03:50:06;21.20;77.20
14397;DHT22;50653;0.000;0.000;2022-08-03T03:52:32;21.30;76.60
14397;DHT22;50653;0.000;0.000;2022-08-03T03:54:58;21.10;77.00
14397;DHT22;50653;0.000;0.000;2022-08-03T03:57:24;21.10;77.50
14397;DHT22;50653;0.000;0.000;2022-08-03T03:59:50;21.10;77.60
14397;DHT22;50653;0.000;0.000;2022-08-03T04:02:16;21.10;77.20
14397;DHT22;50653;0.000;0.000;2022-08-03T04:04:41;21.10;77.80
14397;DHT22;50653;0.000;0.000;2022-08-03T04:07:27;21.00;77.80
14397;DHT22;50653;0.000;0.000;2022-08-03T04:10:19;21.20;77.50
14397;DHT22;50653;0.000;0.000;2022-08-03T04:13:07;21.00;78.50
14397;DHT22;50653;0.000;0.000;2022-08-03T04:15:36;21.10;77.50
14397;DHT22;50653;0.000;0.000;2022-08-03T04:18:02;21.10;77.50
14397;DHT22;50653;0.000;0.000;2022-08-03T04:20:31;21.10;77.10
14397;DHT22;50653;0.000;0.000;2022-08-03T04:22:58;20.90;77.70
14397;DHT22;50653;0.000;0.000;2022-08-03T04:25:28;20.90;78.00
14397;DHT22;50653;0.000;0.000;2022-08-03T04:27:55;20.90;78.10
14397;DHT22;50653;0.000;0.000;2022-08-03T04:30:25;21.00;78.90
14397;DHT22;50653;0.000;0.000;2022-08-03T04:32:53;20.90;78.60
14397;DHT22;50653;0.000;0.000;2022-08-03T04:35:19;21.00;77.80
14397;DHT22;50653;0.000;0.000;2022-08-03T04:37:48;20.90;78.80
14397;DHT22;50653;0.000;0.000;2022-08-03T04:40:20;21.00;78.10
14397;DHT22;50653;0.000;0.000;2022-08-03T04:42:48;21.00;78.40
14397;DHT22;50653;0.000;0.000;2022-08-03T04:45:15;21.00;78.10
14397;DHT22;50653;0.000;0.000;2022-08-03T04:47:41;20.90;78.60
14397;DHT22;50653;0.000;0.000;2022-08-03T04:50:08;20.90;78.40
14397;DHT22;50653;0.000;0.000;2022-08-03T04:52:34;21.00;78.20
14397;DHT22;50653;0.000;0.000;2022-08-03T04:55:00;21.00;77.80
14397;DHT22;50653;0.000;0.000;2022-08-03T04:57:25;21.00;77.80
14397;DHT22;50653;0.000;0.000;2022-08-03T04:59:52;21.00;78.20
14397;DHT22;50653;0.000;0.000;2022-08-03T05:02:21;21.10;78.00
14397;DHT22;50653;0.000;0.000;2022-08-03T05:04:48;21.10;77.50
14397;DHT22;50653;0.000;0.000;2022-08-03T05:07:15;21.00;77.90
14397;DHT22;50653;0.000;0.000;2022-08-03T05:09:41;21.20;78.30
14397;DHT22;50653;0.000;0.000;2022-08-03T05:12:07;21.30;77.60
14397;DHT22;50653;0.000;0.000;2022-08-03T05:14:34;21.30;77.90
14397;DHT22;50653;0.000;0.000;2022-08-03T05:17:03;21.20;77.10
14397;DHT22;50653;0.000;0.000;2022-08-03T05:19:28;21.20;77.80
14397;DHT22;50653;0.000;0.000;2022-08-03T05:21:54;21.20;77.20
14397;DHT22;50653;0.000;0.000;2022-08-03T05:24:19;21.30;77.40
14397;DHT22;50653;0.000;0.000;2022-08-03T05:26:45;21.30;77.40
14397;DHT22;50653;0.000;0.000;2022-08-03T05:29:10;21.10;78.00
14397;DHT22;50653;0.000;0.000;2022-08-03T05:31:36;21.20;78.00
14397;DHT22;50653;0.000;0.000;2022-08-03T05:34:02;21.20;77.90
14397;DHT22;50653;0.000;0.000;2022-08-03T05:36:27;21.30;77.70
14397;DHT22;50653;0.000;0.000;2022-08-03T05:38:53;21.30;77.20
14397;DHT22;50653;0.000;0.000;2022-08-03T05:41:18;21.30;77.70
14397;DHT22;50653;0.000;0.000;2022-08-03T05:43:44;21.30;77.10
14397;DHT22;50653;0.000;0.000;2022-08-03T05:46:10;21.30;77.20
14397;DHT22;50653;0.000;0.000;2022-08-03T05:48:36;21.30;77.40
14397;DHT22;50653;0.000;0.000;2022-08-03T05:51:02;21.40;77.40
14397;DHT22;50653;0.000;0.000;2022-08-03T05:53:32;21.40;76.90
14397;DHT22;50653;0.000;0.000;2022-08-03T05:55:58;21.50;77.10
14397;DHT22;50653;0.000;0.000;2022-08-03T05:58:24;21.40;77.30
14397;DHT22;50653;0.000;0.000;2022-08-03T06:00:49;21.50;76.90
14397;DHT22;50653;0.000;0.000;2022-08-03T06:03:15;21.60;77.10
14397;DHT22;50653;0.000;0.000;2022-08-03T06:05:40;21.60;76.70
14397;DHT22;50653;0.000;0.000;2022-08-03T06:08:06;21.60;76.50
14397;DHT22;50653;0.000;0.000;2022-08-03T06:10:32;21.60;76.50
14397;DHT22;50653;0.000;0.000;2022-08-03T06:12:57;21.70;76.40
14397;DHT22;50653;0.000;0.000;2022-08-03T06:15:23;21.70;76.60
14397;DHT22;50653;0.000;0.000;2022-08-03T06:17:50;21.70;76.80
14397;DHT22;50653;0.000;0.000;2022-08-03T06:20:17;21.70;77.00
14397;DHT22;50653;0.000;0.000;2022-08-03T06:22:44;21.70;77.00
14397;DHT22;50653;0.000;0.000;2022-08-03T06:25:10;21.80;77.10
14397;DHT22;50653;0.000;0.000;2022-08-03T06:27:35;21.70;76.90
14397;DHT22;50653;0.000;0.000;2022-08-03T06:30:05;21.80;76.40
14397;DHT22;50653;0.000;0.000;2022-08-03T06:32:31;21.90;76.30
14397;DHT22;50653;0.000;0.000;2022-08-03T06:34:58;21.90;76.20
14397;DHT22;50653;0.000;0.000;2022-08-03T06:37:24;21.90;76.40
14397;DHT22;50653;0.000;0.000;2022-08-03T06:39:51;21.90;76.10
14397;DHT22;50653;0.000;0.000;2022-08-03T06:42:17;21.90;76.10
14397;DHT22;50653;0.000;0.000;2022-08-03T06:44:43;22.00;76.80
14397;DHT22;50653;0.000;0.000;2022-08-03T06:47:08;22.00;76.30
14397;DHT22;50653;0.000;0.000;2022-08-03T06:49:34;22.10;76.00
14397;DHT22;50653;0.000;0.000;2022-08-03T06:52:00;22.10;75.80
14397;DHT22;50653;0.000;0.000;2022-08-03T06:54:26;22.10;75.40
14397;DHT22;50653;0.000;0.000;2022-08-03T06:56:51;22.20;75.20
14397;DHT22;50653;0.000;0.000;2022-08-03T06:59:17;22.20;75.30
14397;DHT22;50653;0.000;0.000;2022-08-03T07:01:43;22.20;74.80
14397;DHT22;50653;0.000;0.000;2022-08-03T07:04:08;22.20;74.80
14397;DHT22;50653;0.000;0.000;2022-08-03T07:06:34;22.20;74.80
14397;DHT22;50653;0.000;0.000;2022-08-03T07:09:00;22.30;74.90
14397;DHT22;50653;0.000;0.000;2022-08-03T07:11:26;22.30;75.10
14397;DHT22;50653;0.000;0.000;2022-08-03T07:13:53;22.40;74.70
14397;DHT22;50653;0.000;0.000;2022-08-03T07:16:18;22.40;74.30
14397;DHT22;50653;0.000;0.000;2022-08-03T07:18:44;22.50;73.80
14397;DHT22;50653;0.000;0.000;2022-08-03T07:21:10;22.50;74.60
14397;DHT22;50653;0.000;0.000;2022-08-03T07:23:37;22.50;75.10
14397;DHT22;50653;0.000;0.000;2022-08-03T07:26:03;22.50;75.50
14397;DHT22;50653;0.000;0.000;2022-08-03T07:28:29;22.50;75.30
14397;DHT22;50653;0.000;0.000;2022-08-03T07:30:54;22.60;75.20
14397;DHT22;50653;0.000;0.000;2022-08-03T07:33:20;22.60;74.00
14397;DHT22;50653;0.000;0.000;2022-08-03T07:35:47;22.60;72.80
14397;DHT22;50653;0.000;0.000;2022-08-03T07:38:12;22.70;73.20
14397;DHT22;50653;0.000;0.000;2022-08-03T07:40:38;22.70;72.90
14397;DHT22;50653;0.000;0.000;2022-08-03T07:43:04;22.70;72.80
14397;DHT22;50653;0.000;0.000;2022-08-03T07:45:30;22.80;73.00
14397;DHT22;50653;0.000;0.000;2022-08-03T07:47:56;22.80;72.60
14397;DHT22;50653;0.000;0.000;2022-08-03T07:50:22;22.80;72.20
14397;DHT22;50653;0.000;0.000;2022-08-03T07:52:48;22.80;72.60
14397;DHT22;50653;0.000;0.000;2022-08-03T07:55:15;22.90;72.80
14397;DHT22;50653;0.000;0.000;2022-08-03T07:57:41;22.90;72.30
14397;DHT22;50653;0.000;0.000;2022-08-03T08:00:16;23.00;72.80
14397;DHT22;50653;0.000;0.000;2022-08-03T08:02:43;23.00;72.30
14397;DHT22;50653;0.000;0.000;2022-08-03T08:05:09;23.10;72.90
14397;DHT22;50653;0.000;0.000;2022-08-03T08:07:36;23.10;72.30
14397;DHT22;50653;0.000;0.000;2022-08-03T08:10:04;23.10;72.40
14397;DHT22;50653;0.000;0.000;2022-08-03T08:12:30;23.20;71.80
14397;DHT22;50653;0.000;0.000;2022-08-03T08:14:55;23.10;70.90
14397;DHT22;50653;0.000;0.000;2022-08-03T08:17:21;23.20;71.00
14397;DHT22;50653;0.000;0.000;2022-08-03T08:19:47;23.20;71.40
14397;DHT22;50653;0.000;0.000;2022-08-03T08:22:12;23.20;71.60
14397;DHT22;50653;0.000;0.000;2022-08-03T08:24:38;23.30;70.80
14397;DHT22;50653;0.000;0.000;2022-08-03T08:27:04;23.30;70.30
14397;DHT22;50653;0.000;0.000;2022-08-03T08:29:30;23.30;70.00
14397;DHT22;50653;0.000;0.000;2022-08-03T08:31:55;23.40;69.80
14397;DHT22;50653;0.000;0.000;2022-08-03T08:34:21;23.40;70.20
14397;DHT22;50653;0.000;0.000;2022-08-03T08:36:47;23.50;69.80
14397;DHT22;50653;0.000;0.000;2022-08-03T08:39:12;23.50;70.00
14397;DHT22;50653;0.000;0.000;2022-08-03T08:41:38;23.50;69.90
14397;DHT22;50653;0.000;0.000;2022-08-03T08:44:04;23.50;67.90
14397;DHT22;50653;0.000;0.000;2022-08-03T08:46:32;23.50;68.10
14397;DHT22;50653;0.000;0.000;2022-08-03T08:48:59;23.60;68.60
14397;DHT22;50653;0.000;0.000;2022-08-03T08:51:33;23.70;68.60
14397;DHT22;50653;0.000;0.000;2022-08-03T08:54:02;23.70;68.20
14397;DHT22;50653;0.000;0.000;2022-08-03T08:56:30;23.70;68.20
14397;DHT22;50653;0.000;0.000;2022-08-03T08:58:58;23.70;68.00
14397;DHT22;50653;0.000;0.000;2022-08-03T09:01:24;23.70;67.80
14397;DHT22;50653;0.000;0.000;2022-08-03T09:03:50;23.80;67.90
14397;DHT22;50653;0.000;0.000;2022-08-03T09:06:17;23.80;67.30
14397;DHT22;50653;0.000;0.000;2022-08-03T09:08:43;24.00;67.60
14397;DHT22;50653;0.000;0.000;2022-08-03T09:11:09;24.00;66.40
14397;DHT22;50653;0.000;0.000;2022-08-03T09:13:34;24.10;66.10
14397;DHT22;50653;0.000;0.000;2022-08-03T09:16:15;24.20;66.50
14397;DHT22;50653;0.000;0.000;2022-08-03T09:18:43;24.20;65.50
14397;DHT22;50653;0.000;0.000;2022-08-03T09:21:25;24.40;64.90
14397;DHT22;50653;0.000;0.000;2022-08-03T09:23:54;24.40;65.90
14397;DHT22;50653;0.000;0.000;2022-08-03T09:26:26;24.40;64.80
14397;DHT22;50653;0.000;0.000;2022-08-03T09:33:55;24.40;66.30
14397;DHT22;50653;0.000;0.000;2022-08-03T09:36:37;24.40;67.20
14397;DHT22;50653;0.000;0.000;2022-08-03T09:39:11;24.50;68.40
14397;DHT22;50653;0.000;0.000;2022-08-03T09:41:42;24.70;67.80
14397;DHT22;50653;0.000;0.000;2022-08-03T09:44:08;24.70;67.40
14397;DHT22;50653;0.000;0.000;2022-08-03T09:46:48;24.60;67.60
14397;DHT22;50653;0.000;0.000;2022-08-03T09:49:14;24.60;68.00
14397;DHT22;50653;0.000;0.000;2022-08-03T09:51:40;24.70;68.00
14397;DHT22;50653;0.000;0.000;2022-08-03T09:54:06;24.90;68.80
14397;DHT22;50653;0.000;0.000;2022-08-03T09:56:39;24.80;67.90
14397;DHT22;50653;0.000;0.000;2022-08-03T09:59:05;24.80;68.20
14397;DHT22;50653;0.000;0.000;2022-08-03T10:01:34;24.70;68.30
14397;DHT22;50653;0.000;0.000;2022-08-03T10:04:00;24.80;68.40
14397;DHT22;50653;0.000;0.000;2022-08-03T10:06:26;24.80;68.20
14397;DHT22;50653;0.000;0.000;2022-08-03T10:09:13;24.90;68.30
14397;DHT22;50653;0.000;0.000;2022-08-03T10:11:40;25.00;67.50
14397;DHT22;50653;0.000;0.000;2022-08-03T10:14:09;25.00;67.50
14397;DHT22;50653;0.000;0.000;2022-08-03T10:16:37;25.30;65.80
14397;DHT22;50653;0.000;0.000;2022-08-03T10:19:05;25.30;64.80
14397;DHT22;50653;0.000;0.000;2022-08-03T10:21:34;25.40;62.00
14397;DHT22;50653;0.000;0.000;2022-08-03T10:24:05;25.50;61.00
14397;DHT22;50653;0.000;0.000;2022-08-03T10:26:37;25.40;63.00
14397;DHT22;50653;0.000;0.000;2022-08-03T10:29:05;25.30;63.10
14397;DHT22;50653;0.000;0.000;2022-08-03T10:31:42;25.60;61.50
14397;DHT22;50653;0.000;0.000;2022-08-03T10:34:22;25.60;61.70
14397;DHT22;50653;0.000;0.000;2022-08-03T10:36:49;25.50;60.70
14397;DHT22;50653;0.000;0.000;2022-08-03T10:39:21;25.80;59.60
14397;DHT22;50653;0.000;0.000;2022-08-03T10:41:47;26.00;59.20
14397;DHT22;50653;0.000;0.000;2022-08-03T10:44:18;26.00;58.80
14397;DHT22;50653;0.000;0.000;2022-08-03T10:46:46;25.80;58.80
14397;DHT22;50653;0.000;0.000;2022-08-03T10:49:19;25.70;59.80
14397;DHT22;50653;0.000;0.000;2022-08-03T10:51:46;25.70;58.70
14397;DHT22;50653;0.000;0.000;2022-08-03T10:54:41;25.70;59.10
14397;DHT22;50653;0.000;0.000;2022-08-03T10:57:51;25.80;58.70
14397;DHT22;50653;0.000;0.000;2022-08-03T11:00:25;25.90;58.80
14397;DHT22;50653;0.000;0.000;2022-08-03T11:03:11;25.80;57.70
14397;DHT22;50653;0.000;0.000;2022-08-03T11:05:46;25.80;57.60
14397;DHT22;50653;0.000;0.000;2022-08-03T11:08:23;26.00;57.50
14397;DHT22;50653;0.000;0.000;2022-08-03T11:10:51;26.10;57.30
14397;DHT22;50653;0.000;0.000;2022-08-03T11:13:20;26.10;57.00
14397;DHT22;50653;0.000;0.000;2022-08-03T11:15:47;26.30;57.00
14397;DHT22;50653;0.000;0.000;2022-08-03T11:18:14;26.30;56.40
14397;DHT22;50653;0.000;0.000;2022-08-03T11:20:53;26.20;56.20
14397;DHT22;50653;0.000;0.000;2022-08-03T11:23:44;26.30;54.20
14397;DHT22;50653;0.000;0.000;2022-08-03T11:28:38;26.30;54.60
14397;DHT22;50653;0.000;0.000;2022-08-03T11:34:07;26.40;55.40
14397;DHT22;50653;0.000;0.000;2022-08-03T11:39:41;26.60;55.40
14397;DHT22;50653;0.000;0.000;2022-08-03T11:44:49;26.80;53.50
14397;DHT22;50653;0.000;0.000;2022-08-03T11:47:16;26.70;54.10
14397;DHT22;50653;0.000;0.000;2022-08-03T11:49:46;26.60;54.50
14397;DHT22;50653;0.000;0.000;2022-08-03T11:52:12;26.70;53.90
14397;DHT22;50653;0.000;0.000;2022-08-03T11:54:39;26.60;53.90
14397;DHT22;50653;0.000;0.000;2022-08-03T11:57:05;26.60;54.10
14397;DHT22;50653;0.000;0.000;2022-08-03T11:59:35;26.60;54.10
14397;DHT22;50653;0.000;0.000;2022-08-03T12:02:09;26.70;54.20
14397;DHT22;50653;0.000;0.000;2022-08-03T12:04:55;26.70;53.90
14397;DHT22;50653;0.000;0.000;2022-08-03T12:07:23;27.00;52.60
14397;DHT22;50653;0.000;0.000;2022-08-03T12:10:05;27.00;52.70
14397;DHT22;50653;0.000;0.000;2022-08-03T12:12:30;27.00;53.50
14397;DHT22;50653;0.000;0.000;2022-08-03T12:14:56;27.10;52.80
14397;DHT22;50653;0.000;0.000;2022-08-03T12:17:23;27.10;53.20
14397;DHT22;50653;0.000;0.000;2022-08-03T12:19:48;27.00;53.30
14397;DHT22;50653;0.000;0.000;2022-08-03T12:22:14;27.20;53.80
14397;DHT22;50653;0.000;0.000;2022-08-03T12:24:42;27.10;54.30
14397;DHT22;50653;0.000;0.000;2022-08-03T12:27:08;27.30;53.00
14397;DHT22;50653;0.000;0.000;2022-08-03T12:29:34;27.60;51.70
14397;DHT22;50653;0.000;0.000;2022-08-03T12:32:00;27.60;50.80
14397;DHT22;50653;0.000;0.000;2022-08-03T12:34:45;27.80;51.00
14397;DHT22;50653;0.000;0.000;2022-08-03T12:37:11;27.90;49.30
14397;DHT22;50653;0.000;0.000;2022-08-03T12:39:36;27.90;49.60
14397;DHT22;50653;0.000;0.000;2022-08-03T12:42:02;28.10;49.30
14397;DHT22;50653;0.000;0.000;2022-08-03T12:44:29;27.90;49.60
14397;DHT22;50653;0.000;0.000;2022-08-03T12:46:59;27.70;50.30
14397;DHT22;50653;0.000;0.000;2022-08-03T12:49:26;27.50;50.60
14397;DHT22;50653;0.000;0.000;2022-08-03T12:54:20;27.40;51.10
14397;DHT22;50653;0.000;0.000;2022-08-03T12:59:29;27.60;50.10
14397;DHT22;50653;0.000;0.000;2022-08-03T13:01:54;27.60;51.10
14397;DHT22;50653;0.000;0.000;2022-08-03T13:04:31;28.00;50.20
14397;DHT22;50653;0.000;0.000;2022-08-03T13:06:59;27.90;50.60
14397;DHT22;50653;0.000;0.000;2022-08-03T13:09:27;28.50;50.20
14397;DHT22;50653;0.000;0.000;2022-08-03T13:12:10;28.50;49.90
14397;DHT22;50653;0.000;0.000;2022-08-03T13:14:36;28.00;50.00
14397;DHT22;50653;0.000;0.000;2022-08-03T13:17:02;28.30;50.40
14397;DHT22;50653;0.000;0.000;2022-08-03T13:19:28;28.20;50.90
14397;DHT22;50653;0.000;0.000;2022-08-03T13:21:54;27.90;51.70
14397;DHT22;50653;0.000;0.000;2022-08-03T13:24:19;28.30;51.20
14397;DHT22;50653;0.000;0.000;2022-08-03T13:26:45;28.60;50.00
14397;DHT22;50653;0.000;0.000;2022-08-03T13:29:10;28.50;50.20
14397;DHT22;50653;0.000;0.000;2022-08-03T13:31:36;28.70;50.60
14397;DHT22;50653;0.000;0.000;2022-08-03T13:34:02;28.60;50.30
14397;DHT22;50653;0.000;0.000;2022-08-03T13:36:27;28.80;49.90
14397;DHT22;50653;0.000;0.000;2022-08-03T13:38:53;28.80;49.10
14397;DHT22;50653;0.000;0.000;2022-08-03T13:41:18;28.70;49.70
14397;DHT22;50653;0.000;0.000;2022-08-03T13:43:44;28.90;49.00
14397;DHT22;50653;0.000;0.000;2022-08-03T13:46:10;29.20;48.80
14397;DHT22;50653;0.000;0.000;2022-08-03T13:48:35;29.30;49.50
14397;DHT22;50653;0.000;0.000;2022-08-03T13:51:01;29.50;48.40
14397;DHT22;50653;0.000;0.000;2022-08-03T13:53:26;29.40;48.10
14397;DHT22;50653;0.000;0.000;2022-08-03T13:55:52;29.40;48.50
14397;DHT22;50653;0.000;0.000;2022-08-03T13:58:18;29.30;49.70
14397;DHT22;50653;0.000;0.000;2022-08-03T14:00:43;29.50;48.60
14397;DHT22;50653;0.000;0.000;2022-08-03T14:03:09;29.50;48.10
14397;DHT22;50653;0.000;0.000;2022-08-03T14:05:34;29.50;48.40
14397;DHT22;50653;0.000;0.000;2022-08-03T14:08:03;29.50;48.60
14397;DHT22;50653;0.000;0.000;2022-08-03T14:10:38;29.50;49.20
14397;DHT22;50653;0.000;0.000;2022-08-03T14:13:04;29.10;48.40
14397;DHT22;50653;0.000;0.000;2022-08-03T14:15:30;28.90;48.60
14397;DHT22;50653;0.000;0.000;2022-08-03T14:17:56;28.90;48.50
14397;DHT22;50653;0.000;0.000;2022-08-03T14:20:22;28.90;48.30
14397;DHT22;50653;0.000;0.000;2022-08-03T14:22:47;28.70;48.60
14397;DHT22;50653;0.000;0.000;2022-08-03T14:25:13;28.90;49.20
14397;DHT22;50653;0.000;0.000;2022-08-03T14:27:39;28.80;48.90
14397;DHT22;50653;0.000;0.000;2022-08-03T14:30:05;28.90;49.10
14397;DHT22;50653;0.000;0.000;2022-08-03T14:32:30;28.90;48.70
14397;DHT22;50653;0.000;0.000;2022-08-03T14:34:56;29.00;49.10
14397;DHT22;50653;0.000;0.000;2022-08-03T14:37:22;29.40;49.10
14397;DHT22;50653;0.000;0.000;2022-08-03T14:39:47;29.60;48.50
14397;DHT22;50653;0.000;0.000;2022-08-03T14:42:13;29.70;48.40
14397;DHT22;50653;0.000;0.000;2022-08-03T14:44:40;29.50;49.50
14397;DHT22;50653;0.000;0.000;2022-08-03T14:47:06;29.40;48.40
14397;DHT22;50653;0.000;0.000;2022-08-03T14:49:31;29.30;48.50
14397;DHT22;50653;0.000;0.000;2022-08-03T14:51:57;29.30;48.50
14397;DHT22;50653;0.000;0.000;2022-08-03T14:54:23;29.60;48.10
14397;DHT22;50653;0.000;0.000;2022-08-03T14:56:49;29.80;48.00
14397;DHT22;50653;0.000;0.000;2022-08-03T14:59:14;29.90;47.90
14397;DHT22;50653;0.000;0.000;2022-08-03T15:01:40;29.70;48.00
14397;DHT22;50653;0.000;0.000;2022-08-03T15:04:06;29.60;48.00
14397;DHT22;50653;0.000;0.000;2022-08-03T15:06:31;29.60;48.10
14397;DHT22;50653;0.000;0.000;2022-08-03T15:08:57;29.60;48.10
14397;DHT22;50653;0.000;0.000;2022-08-03T15:11:22;29.90;47.90
14397;DHT22;50653;0.000;0.000;2022-08-03T15:13:48;29.90;48.30
14397;DHT22;50653;0.000;0.000;2022-08-03T15:16:13;30.00;48.10
14397;DHT22;50653;0.000;0.000;2022-08-03T15:18:39;30.10;48.50
14397;DHT22;50653;0.000;0.000;2022-08-03T15:21:06;30.20;46.80
14397;DHT22;50653;0.000;0.000;2022-08-03T15:23:31;30.10;47.00
14397;DHT22;50653;0.000;0.000;2022-08-03T15:25:57;30.10;46.50
14397;DHT22;50653;0.000;0.000;2022-08-03T15:28:22;30.00;46.30
14397;DHT22;50653;0.000;0.000;2022-08-03T15:30:50;30.00;45.00
14397;DHT22;50653;0.000;0.000;2022-08-03T15:33:16;30.00;45.30
14397;DHT22;50653;0.000;0.000;2022-08-03T15:35:42;30.10;46.20
14397;DHT22;50653;0.000;0.000;2022-08-03T15:38:08;30.20;45.60
14397;DHT22;50653;0.000;0.000;2022-08-03T15:40:34;30.00;46.50
14397;DHT22;50653;0.000;0.000;2022-08-03T15:43:00;29.80;46.30
14397;DHT22;50653;0.000;0.000;2022-08-03T15:45:26;29.80;46.80
14397;DHT22;50653;0.000;0.000;2022-08-03T15:47:51;29.80;46.80
14397;DHT22;50653;0.000;0.000;2022-08-03T15:50:17;29.90;46.90
14397;DHT22;50653;0.000;0.000;2022-08-03T15:52:43;30.00;47.00
14397;DHT22;50653;0.000;0.000;2022-08-03T15:55:09;30.10;46.40
14397;DHT22;50653;0.000;0.000;2022-08-03T15:57:34;30.10;47.00
14397;DHT22;50653;0.000;0.000;2022-08-03T16:00:04;30.20;46.90
14397;DHT22;50653;0.000;0.000;2022-08-03T16:02:30;30.20;46.50
14397;DHT22;50653;0.000;0.000;2022-08-03T16:04:57;30.10;46.90
14397;DHT22;50653;0.000;0.000;2022-08-03T16:07:22;30.20;47.00
14397;DHT22;50653;0.000;0.000;2022-08-03T16:10:10;30.20;46.20
14397;DHT22;50653;0.000;0.000;2022-08-03T16:12:36;30.30;45.50
14397;DHT22;50653;0.000;0.000;2022-08-03T16:15:03;30.30;45.30
14397;DHT22;50653;0.000;0.000;2022-08-03T16:17:29;30.30;44.60